createdAt,value
2022-10-19T00:05:13.324Z,0
2022-10-19T00:11:33.436Z,0
2022-10-19T00:17:56.358Z,0
2022-10-19T00:24:16.308Z,0
2022-10-19T00:30:39.409Z,0
2022-10-19T00:36:59.439Z,0
2022-10-19T00:43:22.447Z,0
2022-10-19T00:49:42.360Z,0
2022-10-19T00:56:05.415Z,0
2022-10-19T01:02:25.401Z,0
2022-10-19T01:08:48.445Z,0
2022-10-19T01:15:08.403Z,0
2022-10-19T01:21:31.349Z,0
2022-10-19T01:27:51.509Z,0
2022-10-19T01:34:14.422Z,0
2022-10-19T01:40:34.588Z,0
2022-10-19T01:46:57.311Z,0
2022-10-19T01:53:17.365Z,0
2022-10-19T01:59:40.373Z,0
2022-10-19T02:06:00.373Z,0
2022-10-19T02:12:23.425Z,0
2022-10-19T02:18:43.327Z,0
2022-10-19T02:25:06.435Z,0
2022-10-19T02:31:26.361Z,0
2022-10-19T02:37:49.481Z,0
2022-10-19T02:44:09.352Z,0
2022-10-19T02:50:32.399Z,0
2022-10-19T02:56:52.333Z,0
2022-10-19T03:03:15.389Z,0
2022-10-19T03:09:35.360Z,0
2022-10-19T03:15:58.330Z,0
2022-10-19T03:39:57.346Z,0
2022-10-19T03:46:17.319Z,0
2022-10-19T03:52:40.354Z,0
2022-10-19T03:59:00.339Z,0
2022-10-19T04:05:23.336Z,0
2022-10-19T04:11:43.352Z,0
2022-10-19T04:18:06.375Z,0
2022-10-19T04:24:26.442Z,0
2022-10-19T04:30:49.382Z,0
2022-10-19T04:37:09.359Z,0
2022-10-19T04:43:32.446Z,0
2022-10-19T04:49:52.355Z,0
2022-10-19T04:56:15.425Z,0
2022-10-19T05:02:35.353Z,0
2022-10-19T05:08:58.355Z,0
2022-10-19T05:15:18.414Z,0
2022-10-19T05:21:41.358Z,0
2022-10-19T05:28:01.556Z,1
2022-10-19T05:34:24.458Z,1
2022-10-19T05:40:44.415Z,3
2022-10-19T05:47:07.369Z,8
2022-10-19T05:53:27.418Z,20
2022-10-19T05:59:50.412Z,36
2022-10-19T06:06:10.327Z,67
2022-10-19T06:12:33.410Z,109
2022-10-19T06:18:53.423Z,141
2022-10-19T06:25:18.091Z,169
2022-10-19T06:31:36.429Z,217
2022-10-19T06:37:59.382Z,216
2022-10-19T06:44:19.448Z,266
2022-10-19T06:50:42.413Z,374
2022-10-19T06:57:02.353Z,479
2022-10-19T07:03:25.409Z,661
2022-10-19T07:09:45.452Z,684
2022-10-19T07:16:08.477Z,714
2022-10-19T07:22:28.506Z,830
2022-10-19T07:28:51.478Z,1079
2022-10-19T07:35:11.477Z,1121
2022-10-19T07:41:34.450Z,1179
2022-10-19T07:47:54.463Z,1408
2022-10-19T07:54:17.501Z,1512
2022-10-19T08:00:37.473Z,1486
2022-10-19T08:07:00.466Z,1388
2022-10-19T08:13:20.427Z,1477
2022-10-19T08:19:43.788Z,1797
2022-10-19T08:26:03.421Z,1752
2022-10-19T08:50:22.836Z,1697
2022-10-19T08:56:51.288Z,1870
2022-10-19T09:03:05.523Z,1948
2022-10-19T09:09:25.390Z,2085
2022-10-19T09:15:48.461Z,2299
2022-10-19T09:22:08.396Z,2373
2022-10-19T09:28:33.948Z,2426
2022-10-19T09:34:51.369Z,2598
2022-10-19T09:41:14.366Z,2707
2022-10-19T09:47:34.870Z,2812
2022-10-19T09:53:57.408Z,2834
2022-10-19T10:00:17.474Z,2965
2022-10-19T10:06:40.440Z,3020
2022-10-19T10:13:00.404Z,3183
2022-10-19T10:19:27.164Z,3152
2022-10-19T10:25:43.379Z,3181
2022-10-19T10:32:06.386Z,3447
2022-10-19T10:38:26.364Z,3449
2022-10-19T10:44:49.372Z,3586
2022-10-19T10:51:09.359Z,3405
2022-10-19T10:57:32.404Z,3905
2022-10-19T11:03:52.384Z,4115
2022-10-19T11:10:15.443Z,4246
2022-10-19T11:16:35.413Z,4064
2022-10-19T11:22:59.479Z,4320
2022-10-19T11:29:19.361Z,4377
2022-10-19T11:35:42.354Z,4642
2022-10-19T11:42:02.431Z,4338
2022-10-19T11:48:25.366Z,4560
2022-10-19T11:54:45.347Z,4406
2022-10-19T12:01:08.435Z,4868
2022-10-19T12:07:28.378Z,4733
2022-10-19T12:13:51.350Z,4101
2022-10-19T12:20:13.010Z,4452
2022-10-19T12:26:34.360Z,4613
2022-10-19T12:32:54.490Z,4892
2022-10-19T12:39:17.385Z,4742
2022-10-19T12:45:37.321Z,4093
2022-10-19T12:52:00.362Z,3867
2022-10-19T12:58:20.400Z,3499
2022-10-19T13:04:43.345Z,3154
2022-10-19T13:11:03.367Z,2803
2022-10-19T13:17:28.685Z,2464
2022-10-19T13:23:46.371Z,2253
2022-10-19T13:30:09.378Z,2210
2022-10-19T13:36:29.371Z,2149
2022-10-19T13:42:52.333Z,2147
2022-10-19T13:49:12.380Z,2037
2022-10-19T14:06:24.642Z,2059
2022-10-19T14:12:43.370Z,1970
2022-10-19T14:19:06.374Z,1941
2022-10-19T14:25:26.373Z,1926
2022-10-19T14:31:49.329Z,1896
2022-10-19T14:38:09.372Z,1836
2022-10-19T14:44:32.349Z,1751
2022-10-19T14:50:52.404Z,1619
2022-10-19T14:57:15.340Z,1514
2022-10-19T15:03:36.096Z,1511
2022-10-19T15:09:58.385Z,1588
2022-10-19T15:16:18.319Z,1555
2022-10-19T15:22:41.403Z,1577
2022-10-19T15:29:01.331Z,1602
2022-10-19T15:35:24.371Z,1444
2022-10-19T15:41:44.444Z,1097
2022-10-19T15:48:07.363Z,754
2022-10-19T15:54:27.379Z,584
2022-10-19T16:00:50.346Z,450
2022-10-19T16:07:10.438Z,360
2022-10-19T16:13:33.346Z,265
2022-10-19T16:19:53.424Z,178
2022-10-19T16:26:16.336Z,105
2022-10-19T16:32:36.478Z,59
2022-10-19T16:38:59.399Z,32
2022-10-19T16:45:19.484Z,14
2022-10-19T16:51:42.361Z,5
2022-10-19T16:58:02.356Z,1
2022-10-19T17:04:25.391Z,1
2022-10-19T17:10:45.315Z,0
2022-10-19T17:17:08.367Z,0
2022-10-19T17:23:28.348Z,0
2022-10-19T17:29:51.323Z,0
2022-10-19T17:36:11.410Z,0
2022-10-19T17:42:34.346Z,0
2022-10-19T17:48:54.425Z,0
2022-10-19T17:55:17.448Z,0
2022-10-19T18:01:37.342Z,0
2022-10-19T18:08:00.328Z,0
2022-10-19T18:14:20.345Z,0
2022-10-19T18:20:43.386Z,0
2022-10-19T18:27:03.323Z,0
2022-10-19T18:33:28.083Z,0
2022-10-19T18:39:46.324Z,0
2022-10-19T18:46:09.343Z,0
2022-10-19T18:52:29.578Z,0
2022-10-19T18:58:52.380Z,0
2022-10-19T19:05:12.426Z,0
2022-10-19T19:28:01.270Z,0
2022-10-19T19:34:21.305Z,0
2022-10-19T19:40:44.365Z,0
2022-10-19T19:47:04.393Z,0
2022-10-19T19:53:27.317Z,0
2022-10-19T19:59:47.398Z,0
2022-10-19T20:06:10.353Z,0
2022-10-19T20:12:30.347Z,0
2022-10-19T20:18:53.613Z,0
2022-10-19T20:25:13.387Z,0
2022-10-19T20:31:36.408Z,0
2022-10-19T20:37:56.661Z,0
2022-10-19T20:44:19.382Z,0
2022-10-19T20:50:39.396Z,0
2022-10-19T20:57:02.357Z,0
2022-10-19T21:03:22.437Z,0
2022-10-19T21:09:45.362Z,0
2022-10-19T21:16:05.381Z,0
2022-10-19T21:22:28.385Z,0
2022-10-19T21:28:48.368Z,0
2022-10-19T21:35:11.374Z,0
2022-10-19T21:41:31.362Z,0
2022-10-19T21:47:54.385Z,0
2022-10-19T21:54:14.433Z,0
2022-10-19T22:00:37.350Z,0
2022-10-19T22:23:34.347Z,0
2022-10-19T22:29:54.345Z,0
2022-10-19T22:36:17.339Z,0
2022-10-19T22:42:37.967Z,0
2022-10-19T22:49:00.492Z,0
2022-10-19T22:55:20.380Z,0
2022-10-19T23:01:43.523Z,0
2022-10-19T23:08:03.403Z,0
2022-10-19T23:14:26.479Z,0
2022-10-19T23:20:46.419Z,0
2022-10-19T23:27:09.458Z,0
2022-10-19T23:33:29.398Z,0
2022-10-19T23:39:52.465Z,0
2022-10-19T23:46:12.392Z,0
2022-10-19T23:52:35.359Z,0
2022-10-19T23:58:55.476Z,0
